LFGX weather

Public forecast

Using degrees Celsius for public forecast. Weather courtesy of forecast.io.

Closest aviation weather report (METAR) to Champagnole Crotenay Airport

Closest report is Dole-Tavaux Airport, 23.0 nm (42.6 km) NW. Retrieved 2020/08/14 16:30 UTC (12 minutes ago):

LFGJ 141630Z AUTO 36010KT 320V020 9999 ///TCU 25/17 Q1015 TEMPO 4000 SHRA FEW040CB BECMG 20006KT

Closest aviation forecast (TAF) to Champagnole Crotenay Airport

Forecast is more than 12 hours old.

Closest forecast is Dole-Tavaux Airport, 23.0 nm (42.6 km) NW. Retrieved 2020/06/22 09:21 UTC (2 months ago):

TAF LFGJ 220800Z 2209/2221 01008KT 9999 FEW035 BKN053 BECMG 2212/2215 CAVOK